• Join FlightAware (Why Join?)
  • Login
  • US Flag 
10:37AM EST


 

Airport Tracker/Info


-or-


 

Live Flight TrackerFlight Track Log ✈ DAL6068 ✈ 07-May-2013 ✈ KLGA - KRIC

Flight Track Log - Related Links

Times and Time Zones

All times are in EDT time to prevent confusion due to time zone crossing. See the DAL6068 flight status page for this flight to view local times or setup timezone preferences in your user account.

Time Position Orientation Groundspeed Altitude Reporting Facility
EDT Latitude Longitude Course Direction KTS MPH feet Rate Location/Type
09:02AM 40.7500 -73.8333 143° Southeast 170 196 1,600  Level New York TRACON
09:03AM 40.7500 -73.7833 90° East 219 252 3,600 2,040 Climbing New York TRACON
09:04AM 40.4988 -73.6487 143° Southeast  Level FlightAware Approximate
09:04AM 40.7833 -73.8667 298° West 247 284 6,200  Level New York TRACON
09:05AM 40.4116 -73.5616 143° Southeast  Level FlightAware Approximate
09:05AM 40.7167 -73.9000 201° Southwest 261 300 7,900  Level New York TRACON
09:06AM 40.3244 -73.4743 143° Southeast  Level FlightAware Approximate
09:06AM 40.6500 -73.8333 143° Southeast 264 304 10,100  Level New York TRACON
09:07AM 40.2373 -73.3873 143° Southeast  Level FlightAware Approximate
09:07AM 40.6000 -73.7667 135° Southeast 371 427 11,900  Level New York TRACON
09:08AM 40.5333 -73.7000 143° Southeast 303 349 12,000 420 Climbing New York TRACON
09:10AM 40.3625 -73.5411 145° Southeast 322 371 13,400 840 Climbing New York Center
09:11AM 40.2711 -73.5319 176° South 317 365 14,800 1,380 Climbing New York Center
09:13AM 40.1122 -73.5189 176° South 354 407 17,100 1,380 Climbing Washington Center
09:14AM 40.0142 -73.5164 179° South 354 407 18,500 1,380 Climbing Washington Center
09:15AM 39.9319 -73.5839 212° Southwest 345 397 19,900 1,380 Climbing Washington Center
09:16AM 39.8478 -73.6564 213° Southwest 345 397 21,400 1,020 Climbing Washington Center
09:17AM 39.7594 -73.7264 211° Southwest 365 420 22,000 300 Climbing Washington Center
09:18AM 39.6708 -73.8042 214° Southwest 378 435 22,000  Level Washington Center
09:19AM 39.5803 -73.8819 214° Southwest 393 452 22,000  Level Washington Center
09:20AM 39.4897 -73.9539 212° Southwest 388 447 22,000  Level Washington Center
09:21AM 39.3992 -74.0311 213° Southwest 388 447 22,000  Level Washington Center
09:22AM 39.3189 -74.1189 220° Southwest 394 453 22,000  Level Washington Center
09:23AM 39.2386 -74.2061 220° Southwest 394 453 22,000  Level Washington Center
09:24AM 39.1564 -74.2961 220° Southwest 388 447 22,000  Level Washington Center
09:25AM 39.0781 -74.3831 221° Southwest 383 441 22,000  Level Washington Center
09:26AM 38.9997 -74.4672 220° Southwest 378 435 22,000  Level Washington Center
09:27AM 38.9169 -74.5564 220° Southwest 378 435 22,000  Level Washington Center
09:28AM 38.8386 -74.6403 220° Southwest 373 429 22,000  Level Washington Center
09:29AM 38.7600 -74.7236 220° Southwest 373 429 22,000  Level Washington Center
09:30AM 38.6814 -74.8125 221° Southwest 373 429 22,000  Level Washington Center
09:31AM 38.5986 -74.8983 219° Southwest 379 436 22,000  Level Washington Center
09:32AM 38.5156 -74.9842 219° Southwest 379 436 22,000  Level Washington Center
09:33AM 38.4347 -75.0694 220° Southwest 384 442 22,000  Level Washington Center
09:34AM 38.3517 -75.1522 218° Southwest 384 442 22,000  Level Washington Center
09:35AM 38.2728 -75.2453 223° Southwest 379 436 22,000  Level Washington Center
09:36AM 38.1958 -75.3250 219° Southwest 374 430 22,000  Level Washington Center
09:37AM 38.1311 -75.3992 222° Southwest 352 405 22,000 -60 Level Washington Center
09:38AM 38.0625 -75.4678 218° Southwest 331 381 21,900  Descending Washington Center
09:39AM 37.9856 -75.5233 210° Southwest 320 368 22,000  Climbing Washington Center
09:40AM 37.9083 -75.5839 212° Southwest 326 375 22,000  Level Washington Center
09:40AM 37.8792 -75.6022 206° Southwest 334 384 22,000 -120 Level Washington Center
09:41AM 37.8333 -75.6364 210° Southwest 335 386 21,900 -600 Descending Washington Center
09:41AM 37.7914 -75.6681 211° Southwest 339 390 21,400 -1,320 Descending Washington Center
09:42AM 37.7561 -75.6969 213° Southwest 340 391 20,600 -1,500 Descending Washington Center
09:42AM 37.7142 -75.7256 208° Southwest 332 382 19,900 -1,500 Descending Washington Center
09:43AM 37.6789 -75.7572 215° Southwest 334 384 19,100 -1,500 Descending Washington Center
09:43AM 37.6392 -75.7806 205° Southwest 312 359 18,400 -1,500 Descending Washington Center
09:44AM 37.5994 -75.8014 203° Southwest 324 373 17,700 -1,380 Descending Washington Center
09:45AM 37.5242 -75.8406 202° Southwest 311 358 16,200 -1,680 Descending Washington Center
09:45AM 37.4825 -75.8614 202° Southwest 299 344 15,400 -1,500 Descending Washington Center
09:46AM 37.4469 -75.8794 202° Southwest 306 352 14,700 -1,440 Descending Washington Center
09:46AM 37.4178 -75.9186 227° Southwest 298 343 14,000 -1,500 Descending Washington Center
09:47AM 37.4008 -75.9656 246° West 288 331 13,200 -1,500 Descending Washington Center
09:47AM 37.3861 -76.0153 250° West 307 353 12,500 -1,200 Descending Washington Center
09:48AM 37.3858 -76.0675 270° West 283 326 12,000 -540 Descending Washington Center
09:48AM 37.3814 -76.1303 265° West 305 351 12,000  Level Washington Center
09:49AM 37.3792 -76.1694 266° West 283 326 12,000  Level Washington Center
09:50AM 37.3725 -76.2792 266° West 302 348 12,000 -780 Level Washington Center
09:52AM 37.3667 -76.5167 268° West 297 342 9,700 -1,260 Descending Potomac TRACON
09:53AM 37.3500 -76.6000 256° West 292 336 8,300 -900 Descending Potomac TRACON
09:54AM 37.3500 -76.7000 270° West 292 336 8,000 -300 Descending Potomac TRACON
09:55AM 37.3500 -76.8167 270° West 306 352 7,800 -600 Descending Potomac TRACON
09:56AM 37.3333 -76.9167 258° West 299 344 6,800 -1,140 Descending Potomac TRACON
09:57AM 37.3833 -77.0000 307° West 297 342 5,600 -1,380 Descending Potomac TRACON
09:58AM 37.4333 -77.0667 313° West 278 320 4,100 -900 Descending Potomac TRACON
09:59AM 37.4833 -77.1000 332° Northwest 237 273 4,000 -60 Descending Potomac TRACON
10:00AM 37.5333 -77.1667 313° West 236 272 4,000  Level Potomac TRACON
10:01AM 37.5833 -77.2167 322° Northwest 232 267 4,000 -480 Level Potomac TRACON
10:02AM 37.6167 -77.2500 322° Northwest 206 237 3,200 -840 Descending Potomac TRACON
10:03AM 37.6667 -77.3000 322° Northwest 201 231 2,500 -360 Descending Potomac TRACON
10:04AM 37.7000 -77.3500 310° West 201 231 2,500  Level Potomac TRACON
10:05AM 37.7000 -77.4167 270° West 198 228 2,500  Level Potomac TRACON
10:06AM 37.6667 -77.4500 218° Southwest 175 201 2,500  Level Potomac TRACON
10:07AM 37.6333 -77.4167 142° Southeast 157 181 2,500  Level Potomac TRACON